sensor_id;sensor_type;location;lat;lon;timestamp;P1;durP1;ratioP1;P2;durP2;ratioP2
6392;SDS011;3229;42.674;23.282;2023-02-12T00:01:13;8.87;;;6.60;;
6392;SDS011;3229;42.674;23.282;2023-02-12T00:03:40;8.73;;;6.43;;
6392;SDS011;3229;42.674;23.282;2023-02-12T00:06:07;9.30;;;6.57;;
6392;SDS011;3229;42.674;23.282;2023-02-12T00:08:35;10.73;;;7.73;;
6392;SDS011;3229;42.674;23.282;2023-02-12T00:11:06;10.47;;;7.10;;
6392;SDS011;3229;42.674;23.282;2023-02-12T00:13:36;8.30;;;6.50;;
6392;SDS011;3229;42.674;23.282;2023-02-12T00:16:04;14.63;;;7.63;;
6392;SDS011;3229;42.674;23.282;2023-02-12T00:18:33;11.03;;;7.73;;
6392;SDS011;3229;42.674;23.282;2023-02-12T00:21:00;11.30;;;6.90;;
6392;SDS011;3229;42.674;23.282;2023-02-12T00:23:26;10.70;;;8.03;;
6392;SDS011;3229;42.674;23.282;2023-02-12T00:25:53;10.07;;;7.53;;
6392;SDS011;3229;42.674;23.282;2023-02-12T00:28:20;9.83;;;7.23;;
6392;SDS011;3229;42.674;23.282;2023-02-12T00:30:49;7.27;;;6.57;;
6392;SDS011;3229;42.674;23.282;2023-02-12T00:33:15;12.57;;;7.47;;
6392;SDS011;3229;42.674;23.282;2023-02-12T00:35:42;9.10;;;7.17;;
6392;SDS011;3229;42.674;23.282;2023-02-12T00:38:09;9.97;;;7.70;;
6392;SDS011;3229;42.674;23.282;2023-02-12T00:40:36;9.93;;;7.13;;
6392;SDS011;3229;42.674;23.282;2023-02-12T00:43:03;8.47;;;7.10;;
6392;SDS011;3229;42.674;23.282;2023-02-12T00:45:30;10.97;;;7.60;;
6392;SDS011;3229;42.674;23.282;2023-02-12T00:47:58;9.17;;;7.10;;
6392;SDS011;3229;42.674;23.282;2023-02-12T00:50:25;10.07;;;7.47;;
6392;SDS011;3229;42.674;23.282;2023-02-12T00:52:52;8.77;;;6.83;;
6392;SDS011;3229;42.674;23.282;2023-02-12T00:55:18;8.37;;;6.60;;
6392;SDS011;3229;42.674;23.282;2023-02-12T00:57:45;11.03;;;7.07;;
6392;SDS011;3229;42.674;23.282;2023-02-12T01:00:13;9.10;;;6.77;;
6392;SDS011;3229;42.674;23.282;2023-02-12T01:02:40;9.67;;;7.13;;
6392;SDS011;3229;42.674;23.282;2023-02-12T01:05:08;9.90;;;7.30;;
6392;SDS011;3229;42.674;23.282;2023-02-12T01:07:36;12.27;;;7.97;;
6392;SDS011;3229;42.674;23.282;2023-02-12T01:10:05;11.73;;;7.57;;
6392;SDS011;3229;42.674;23.282;2023-02-12T01:12:33;9.57;;;6.93;;
6392;SDS011;3229;42.674;23.282;2023-02-12T01:15:00;11.67;;;7.97;;
6392;SDS011;3229;42.674;23.282;2023-02-12T01:17:27;9.23;;;6.43;;
6392;SDS011;3229;42.674;23.282;2023-02-12T01:19:55;9.13;;;6.60;;
6392;SDS011;3229;42.674;23.282;2023-02-12T01:22:24;9.90;;;7.50;;
6392;SDS011;3229;42.674;23.282;2023-02-12T01:24:51;11.27;;;7.80;;
6392;SDS011;3229;42.674;23.282;2023-02-12T01:27:18;9.33;;;7.20;;
6392;SDS011;3229;42.674;23.282;2023-02-12T01:29:45;7.87;;;6.77;;
6392;SDS011;3229;42.674;23.282;2023-02-12T01:32:12;10.07;;;6.93;;
6392;SDS011;3229;42.674;23.282;2023-02-12T01:34:38;9.53;;;7.27;;
6392;SDS011;3229;42.674;23.282;2023-02-12T01:37:05;11.67;;;7.47;;
6392;SDS011;3229;42.674;23.282;2023-02-12T01:39:33;10.40;;;7.23;;
6392;SDS011;3229;42.674;23.282;2023-02-12T01:42:00;9.03;;;7.27;;
6392;SDS011;3229;42.674;23.282;2023-02-12T01:44:29;10.63;;;6.70;;
6392;SDS011;3229;42.674;23.282;2023-02-12T01:46:59;8.30;;;6.70;;
6392;SDS011;3229;42.674;23.282;2023-02-12T01:49:30;10.53;;;7.37;;
6392;SDS011;3229;42.674;23.282;2023-02-12T01:52:02;12.73;;;8.20;;
6392;SDS011;3229;42.674;23.282;2023-02-12T01:54:34;12.47;;;7.17;;
6392;SDS011;3229;42.674;23.282;2023-02-12T01:57:03;9.53;;;7.30;;
6392;SDS011;3229;42.674;23.282;2023-02-12T01:59:32;8.37;;;6.90;;
6392;SDS011;3229;42.674;23.282;2023-02-12T02:02:01;11.80;;;7.93;;
6392;SDS011;3229;42.674;23.282;2023-02-12T02:04:30;9.27;;;7.43;;
6392;SDS011;3229;42.674;23.282;2023-02-12T02:07:02;10.00;;;7.37;;
6392;SDS011;3229;42.674;23.282;2023-02-12T02:09:32;12.17;;;8.07;;
6392;SDS011;3229;42.674;23.282;2023-02-12T02:12:02;10.30;;;7.53;;
6392;SDS011;3229;42.674;23.282;2023-02-12T02:14:47;10.30;;;7.67;;
6392;SDS011;3229;42.674;23.282;2023-02-12T02:20:16;13.60;;;7.83;;
6392;SDS011;3229;42.674;23.282;2023-02-12T02:22:59;11.03;;;7.93;;
6392;SDS011;3229;42.674;23.282;2023-02-12T02:25:39;10.63;;;7.63;;
6392;SDS011;3229;42.674;23.282;2023-02-12T02:28:39;8.87;;;6.90;;
6392;SDS011;3229;42.674;23.282;2023-02-12T02:31:22;9.13;;;7.03;;
6392;SDS011;3229;42.674;23.282;2023-02-12T02:33:52;8.97;;;7.03;;
6392;SDS011;3229;42.674;23.282;2023-02-12T02:36:24;9.37;;;7.67;;
6392;SDS011;3229;42.674;23.282;2023-02-12T02:38:59;10.80;;;7.70;;
6392;SDS011;3229;42.674;23.282;2023-02-12T02:41:34;9.63;;;7.17;;
6392;SDS011;3229;42.674;23.282;2023-02-12T02:44:09;9.70;;;7.53;;
6392;SDS011;3229;42.674;23.282;2023-02-12T02:46:44;10.43;;;8.00;;
6392;SDS011;3229;42.674;23.282;2023-02-12T02:49:15;8.47;;;7.00;;
6392;SDS011;3229;42.674;23.282;2023-02-12T02:51:44;10.37;;;7.63;;
6392;SDS011;3229;42.674;23.282;2023-02-12T02:54:17;9.57;;;7.80;;
6392;SDS011;3229;42.674;23.282;2023-02-12T02:56:49;9.57;;;7.20;;
6392;SDS011;3229;42.674;23.282;2023-02-12T02:59:19;11.47;;;7.47;;
6392;SDS011;3229;42.674;23.282;2023-02-12T03:01:53;9.97;;;6.77;;
6392;SDS011;3229;42.674;23.282;2023-02-12T03:04:26;9.90;;;6.80;;
6392;SDS011;3229;42.674;23.282;2023-02-12T03:06:58;12.23;;;7.77;;
6392;SDS011;3229;42.674;23.282;2023-02-12T03:09:30;11.30;;;7.33;;
6392;SDS011;3229;42.674;23.282;2023-02-12T03:12:02;9.67;;;7.10;;
6392;SDS011;3229;42.674;23.282;2023-02-12T03:14:35;11.40;;;7.87;;
6392;SDS011;3229;42.674;23.282;2023-02-12T03:17:09;11.20;;;8.23;;
6392;SDS011;3229;42.674;23.282;2023-02-12T03:19:42;10.87;;;7.53;;
6392;SDS011;3229;42.674;23.282;2023-02-12T03:22:13;10.87;;;8.37;;
6392;SDS011;3229;42.674;23.282;2023-02-12T03:24:43;12.00;;;8.03;;
6392;SDS011;3229;42.674;23.282;2023-02-12T03:27:15;11.90;;;7.60;;
6392;SDS011;3229;42.674;23.282;2023-02-12T03:29:45;12.97;;;7.70;;
6392;SDS011;3229;42.674;23.282;2023-02-12T03:32:21;13.00;;;8.33;;
6392;SDS011;3229;42.674;23.282;2023-02-12T03:34:55;12.93;;;8.30;;
6392;SDS011;3229;42.674;23.282;2023-02-12T03:37:35;12.47;;;8.70;;
6392;SDS011;3229;42.674;23.282;2023-02-12T03:40:07;12.63;;;8.53;;
6392;SDS011;3229;42.674;23.282;2023-02-12T03:42:42;12.13;;;7.60;;
6392;SDS011;3229;42.674;23.282;2023-02-12T03:45:15;11.40;;;8.93;;
6392;SDS011;3229;42.674;23.282;2023-02-12T03:47:49;13.27;;;8.57;;
6392;SDS011;3229;42.674;23.282;2023-02-12T03:50:24;12.03;;;8.80;;
6392;SDS011;3229;42.674;23.282;2023-02-12T03:52:58;12.97;;;8.83;;
6392;SDS011;3229;42.674;23.282;2023-02-12T03:55:25;12.67;;;8.70;;
6392;SDS011;3229;42.674;23.282;2023-02-12T03:57:53;11.47;;;8.70;;
6392;SDS011;3229;42.674;23.282;2023-02-12T04:00:25;12.70;;;9.43;;
6392;SDS011;3229;42.674;23.282;2023-02-12T04:02:53;11.27;;;8.80;;
6392;SDS011;3229;42.674;23.282;2023-02-12T04:05:21;12.53;;;9.20;;
6392;SDS011;3229;42.674;23.282;2023-02-12T04:07:49;15.33;;;10.10;;
6392;SDS011;3229;42.674;23.282;2023-02-12T04:10:18;14.93;;;8.90;;
6392;SDS011;3229;42.674;23.282;2023-02-12T04:12:53;12.50;;;9.57;;
6392;SDS011;3229;42.674;23.282;2023-02-12T04:15:31;15.60;;;9.50;;
6392;SDS011;3229;42.674;23.282;2023-02-12T04:18:09;14.50;;;9.50;;
6392;SDS011;3229;42.674;23.282;2023-02-12T04:20:41;13.10;;;9.47;;
6392;SDS011;3229;42.674;23.282;2023-02-12T04:23:21;15.33;;;10.60;;
6392;SDS011;3229;42.674;23.282;2023-02-12T04:26:08;15.83;;;10.57;;
6392;SDS011;3229;42.674;23.282;2023-02-12T04:28:42;13.00;;;8.87;;
6392;SDS011;3229;42.674;23.282;2023-02-12T04:31:19;15.13;;;9.47;;
6392;SDS011;3229;42.674;23.282;2023-02-12T04:33:59;14.20;;;10.33;;
6392;SDS011;3229;42.674;23.282;2023-02-12T04:36:34;17.37;;;10.43;;
6392;SDS011;3229;42.674;23.282;2023-02-12T04:39:07;15.17;;;10.00;;
6392;SDS011;3229;42.674;23.282;2023-02-12T04:41:36;14.50;;;10.73;;
6392;SDS011;3229;42.674;23.282;2023-02-12T04:44:14;13.20;;;9.70;;
6392;SDS011;3229;42.674;23.282;2023-02-12T04:46:42;16.53;;;10.73;;
6392;SDS011;3229;42.674;23.282;2023-02-12T04:49:12;14.23;;;11.10;;
6392;SDS011;3229;42.674;23.282;2023-02-12T04:51:41;13.53;;;10.27;;
6392;SDS011;3229;42.674;23.282;2023-02-12T04:54:08;16.27;;;11.17;;
6392;SDS011;3229;42.674;23.282;2023-02-12T04:56:35;18.33;;;11.63;;
6392;SDS011;3229;42.674;23.282;2023-02-12T04:59:02;19.50;;;11.67;;
6392;SDS011;3229;42.674;23.282;2023-02-12T05:01:29;15.43;;;9.87;;
6392;SDS011;3229;42.674;23.282;2023-02-12T05:03:55;15.73;;;9.93;;
6392;SDS011;3229;42.674;23.282;2023-02-12T05:06:24;16.97;;;11.20;;
6392;SDS011;3229;42.674;23.282;2023-02-12T05:08:51;15.00;;;10.53;;
6392;SDS011;3229;42.674;23.282;2023-02-12T05:11:18;15.97;;;11.50;;
6392;SDS011;3229;42.674;23.282;2023-02-12T05:13:46;15.53;;;10.37;;
6392;SDS011;3229;42.674;23.282;2023-02-12T05:16:14;16.00;;;11.17;;
6392;SDS011;3229;42.674;23.282;2023-02-12T05:18:41;15.03;;;10.13;;
6392;SDS011;3229;42.674;23.282;2023-02-12T05:21:08;14.33;;;10.13;;
6392;SDS011;3229;42.674;23.282;2023-02-12T05:23:37;18.93;;;10.30;;
6392;SDS011;3229;42.674;23.282;2023-02-12T05:26:06;12.40;;;9.70;;
6392;SDS011;3229;42.674;23.282;2023-02-12T05:28:34;17.40;;;10.57;;
6392;SDS011;3229;42.674;23.282;2023-02-12T05:31:01;14.03;;;9.60;;
6392;SDS011;3229;42.674;23.282;2023-02-12T05:33:29;16.07;;;10.13;;
6392;SDS011;3229;42.674;23.282;2023-02-12T05:36:01;15.90;;;10.53;;
6392;SDS011;3229;42.674;23.282;2023-02-12T05:38:29;13.80;;;10.30;;
6392;SDS011;3229;42.674;23.282;2023-02-12T05:41:01;14.47;;;10.10;;
6392;SDS011;3229;42.674;23.282;2023-02-12T05:43:28;14.93;;;10.17;;
6392;SDS011;3229;42.674;23.282;2023-02-12T05:45:57;13.77;;;9.67;;
6392;SDS011;3229;42.674;23.282;2023-02-12T05:48:24;13.20;;;9.10;;
6392;SDS011;3229;42.674;23.282;2023-02-12T05:50:52;14.50;;;9.90;;
6392;SDS011;3229;42.674;23.282;2023-02-12T05:53:18;13.57;;;10.00;;
6392;SDS011;3229;42.674;23.282;2023-02-12T05:55:46;16.80;;;9.70;;
6392;SDS011;3229;42.674;23.282;2023-02-12T05:58:14;18.43;;;10.10;;
6392;SDS011;3229;42.674;23.282;2023-02-12T06:00:41;11.70;;;9.53;;
6392;SDS011;3229;42.674;23.282;2023-02-12T06:03:07;15.50;;;10.33;;
6392;SDS011;3229;42.674;23.282;2023-02-12T06:05:34;14.53;;;9.90;;
6392;SDS011;3229;42.674;23.282;2023-02-12T06:08:01;15.03;;;10.33;;
6392;SDS011;3229;42.674;23.282;2023-02-12T06:10:28;16.20;;;9.97;;
6392;SDS011;3229;42.674;23.282;2023-02-12T06:12:54;14.37;;;9.77;;
6392;SDS011;3229;42.674;23.282;2023-02-12T06:15:23;12.30;;;9.50;;
6392;SDS011;3229;42.674;23.282;2023-02-12T06:17:49;16.83;;;10.10;;
6392;SDS011;3229;42.674;23.282;2023-02-12T06:20:16;12.57;;;9.27;;
6392;SDS011;3229;42.674;23.282;2023-02-12T06:22:43;13.07;;;9.00;;
6392;SDS011;3229;42.674;23.282;2023-02-12T06:25:10;14.00;;;9.47;;
6392;SDS011;3229;42.674;23.282;2023-02-12T06:27:37;14.20;;;9.17;;
6392;SDS011;3229;42.674;23.282;2023-02-12T06:30:04;13.83;;;10.07;;
6392;SDS011;3229;42.674;23.282;2023-02-12T06:32:33;12.13;;;9.07;;
6392;SDS011;3229;42.674;23.282;2023-02-12T06:35:00;12.80;;;8.83;;
6392;SDS011;3229;42.674;23.282;2023-02-12T06:37:26;13.80;;;9.23;;
6392;SDS011;3229;42.674;23.282;2023-02-12T06:39:53;15.43;;;9.90;;
6392;SDS011;3229;42.674;23.282;2023-02-12T06:42:20;13.40;;;9.10;;
6392;SDS011;3229;42.674;23.282;2023-02-12T06:44:47;12.37;;;8.83;;
6392;SDS011;3229;42.674;23.282;2023-02-12T06:47:14;12.30;;;8.87;;
6392;SDS011;3229;42.674;23.282;2023-02-12T06:49:42;9.20;;;8.27;;
6392;SDS011;3229;42.674;23.282;2023-02-12T06:52:09;12.90;;;8.77;;
6392;SDS011;3229;42.674;23.282;2023-02-12T06:54:35;12.93;;;8.47;;
6392;SDS011;3229;42.674;23.282;2023-02-12T06:57:02;10.63;;;7.97;;
6392;SDS011;3229;42.674;23.282;2023-02-12T06:59:29;13.37;;;8.47;;
6392;SDS011;3229;42.674;23.282;2023-02-12T07:01:56;14.00;;;8.93;;
6392;SDS011;3229;42.674;23.282;2023-02-12T07:04:23;12.13;;;9.20;;
6392;SDS011;3229;42.674;23.282;2023-02-12T07:06:51;15.47;;;8.27;;
6392;SDS011;3229;42.674;23.282;2023-02-12T07:09:18;12.17;;;7.77;;
6392;SDS011;3229;42.674;23.282;2023-02-12T07:11:44;9.50;;;7.60;;
6392;SDS011;3229;42.674;23.282;2023-02-12T07:14:12;11.97;;;8.20;;
6392;SDS011;3229;42.674;23.282;2023-02-12T07:16:40;9.90;;;7.90;;
6392;SDS011;3229;42.674;23.282;2023-02-12T07:19:08;11.47;;;8.10;;
6392;SDS011;3229;42.674;23.282;2023-02-12T07:21:37;12.57;;;8.33;;
6392;SDS011;3229;42.674;23.282;2023-02-12T07:24:05;14.33;;;7.43;;
6392;SDS011;3229;42.674;23.282;2023-02-12T07:26:36;9.73;;;7.63;;
6392;SDS011;3229;42.674;23.282;2023-02-12T07:29:03;11.03;;;8.20;;
6392;SDS011;3229;42.674;23.282;2023-02-12T07:31:30;10.27;;;7.73;;
6392;SDS011;3229;42.674;23.282;2023-02-12T07:33:57;13.63;;;8.37;;
6392;SDS011;3229;42.674;23.282;2023-02-12T07:36:26;10.80;;;8.33;;
6392;SDS011;3229;42.674;23.282;2023-02-12T07:38:54;9.97;;;7.63;;
6392;SDS011;3229;42.674;23.282;2023-02-12T07:41:24;10.87;;;7.87;;
6392;SDS011;3229;42.674;23.282;2023-02-12T07:43:54;9.80;;;7.60;;
6392;SDS011;3229;42.674;23.282;2023-02-12T07:46:22;8.67;;;7.27;;
6392;SDS011;3229;42.674;23.282;2023-02-12T07:48:54;10.97;;;8.47;;
6392;SDS011;3229;42.674;23.282;2023-02-12T07:51:21;12.10;;;8.53;;
6392;SDS011;3229;42.674;23.282;2023-02-12T07:53:48;9.70;;;7.43;;
6392;SDS011;3229;42.674;23.282;2023-02-12T07:56:16;9.30;;;8.33;;
6392;SDS011;3229;42.674;23.282;2023-02-12T07:58:47;9.77;;;8.77;;
6392;SDS011;3229;42.674;23.282;2023-02-12T08:01:16;13.93;;;9.23;;
6392;SDS011;3229;42.674;23.282;2023-02-12T08:03:44;10.90;;;8.10;;
6392;SDS011;3229;42.674;23.282;2023-02-12T08:06:13;11.70;;;8.77;;
6392;SDS011;3229;42.674;23.282;2023-02-12T08:08:41;11.67;;;8.90;;
6392;SDS011;3229;42.674;23.282;2023-02-12T08:11:09;13.97;;;9.87;;
6392;SDS011;3229;42.674;23.282;2023-02-12T08:13:36;13.87;;;8.43;;
6392;SDS011;3229;42.674;23.282;2023-02-12T08:16:06;11.80;;;9.87;;
6392;SDS011;3229;42.674;23.282;2023-02-12T08:18:34;10.63;;;8.17;;
6392;SDS011;3229;42.674;23.282;2023-02-12T08:21:01;14.57;;;9.80;;
6392;SDS011;3229;42.674;23.282;2023-02-12T08:23:29;14.27;;;9.40;;
6392;SDS011;3229;42.674;23.282;2023-02-12T08:26:03;12.40;;;9.10;;
6392;SDS011;3229;42.674;23.282;2023-02-12T08:28:35;14.00;;;10.00;;
6392;SDS011;3229;42.674;23.282;2023-02-12T08:31:05;11.70;;;9.87;;
6392;SDS011;3229;42.674;23.282;2023-02-12T08:33:34;14.33;;;9.63;;
6392;SDS011;3229;42.674;23.282;2023-02-12T08:36:01;14.80;;;9.37;;
6392;SDS011;3229;42.674;23.282;2023-02-12T08:38:30;12.00;;;8.63;;
6392;SDS011;3229;42.674;23.282;2023-02-12T08:40:59;12.87;;;9.30;;
6392;SDS011;3229;42.674;23.282;2023-02-12T08:43:26;15.97;;;9.60;;
6392;SDS011;3229;42.674;23.282;2023-02-12T08:45:53;13.83;;;9.53;;
6392;SDS011;3229;42.674;23.282;2023-02-12T08:48:23;12.50;;;9.47;;
6392;SDS011;3229;42.674;23.282;2023-02-12T08:50:50;11.53;;;9.73;;
6392;SDS011;3229;42.674;23.282;2023-02-12T08:53:16;13.00;;;9.67;;
6392;SDS011;3229;42.674;23.282;2023-02-12T08:55:46;13.50;;;9.77;;
6392;SDS011;3229;42.674;23.282;2023-02-12T08:58:14;16.80;;;9.33;;
6392;SDS011;3229;42.674;23.282;2023-02-12T09:00:40;13.33;;;9.33;;
6392;SDS011;3229;42.674;23.282;2023-02-12T09:03:07;15.33;;;10.20;;
6392;SDS011;3229;42.674;23.282;2023-02-12T09:05:38;14.33;;;9.40;;
6392;SDS011;3229;42.674;23.282;2023-02-12T09:08:05;16.83;;;10.37;;
6392;SDS011;3229;42.674;23.282;2023-02-12T09:10:32;11.37;;;8.97;;
6392;SDS011;3229;42.674;23.282;2023-02-12T09:13:00;12.83;;;9.20;;
6392;SDS011;3229;42.674;23.282;2023-02-12T09:15:26;14.47;;;9.60;;
6392;SDS011;3229;42.674;23.282;2023-02-12T09:17:53;13.23;;;9.67;;
6392;SDS011;3229;42.674;23.282;2023-02-12T09:20:20;12.43;;;9.60;;
6392;SDS011;3229;42.674;23.282;2023-02-12T09:22:48;12.90;;;10.43;;
6392;SDS011;3229;42.674;23.282;2023-02-12T09:25:15;12.83;;;9.77;;
6392;SDS011;3229;42.674;23.282;2023-02-12T09:27:42;13.00;;;9.37;;
6392;SDS011;3229;42.674;23.282;2023-02-12T09:30:09;14.37;;;10.53;;
6392;SDS011;3229;42.674;23.282;2023-02-12T09:32:36;13.10;;;10.20;;
6392;SDS011;3229;42.674;23.282;2023-02-12T09:35:03;12.67;;;10.20;;
6392;SDS011;3229;42.674;23.282;2023-02-12T09:37:30;13.57;;;10.17;;
6392;SDS011;3229;42.674;23.282;2023-02-12T09:39:59;11.33;;;9.67;;
6392;SDS011;3229;42.674;23.282;2023-02-12T09:42:31;10.13;;;6.97;;
6392;SDS011;3229;42.674;23.282;2023-02-12T09:45:16;12.47;;;6.97;;
6392;SDS011;3229;42.674;23.282;2023-02-12T09:47:47;13.27;;;6.97;;
6392;SDS011;3229;42.674;23.282;2023-02-12T09:50:29;12.47;;;6.33;;
6392;SDS011;3229;42.674;23.282;2023-02-12T09:53:02;15.37;;;7.80;;
6392;SDS011;3229;42.674;23.282;2023-02-12T09:55:33;10.43;;;8.17;;
6392;SDS011;3229;42.674;23.282;2023-02-12T09:58:01;13.97;;;7.53;;
6392;SDS011;3229;42.674;23.282;2023-02-12T10:00:32;12.13;;;9.20;;
6392;SDS011;3229;42.674;23.282;2023-02-12T10:02:59;10.97;;;8.20;;
6392;SDS011;3229;42.674;23.282;2023-02-12T10:05:30;11.20;;;8.20;;
6392;SDS011;3229;42.674;23.282;2023-02-12T10:08:08;11.77;;;9.23;;
6392;SDS011;3229;42.674;23.282;2023-02-12T10:10:51;10.93;;;8.73;;
6392;SDS011;3229;42.674;23.282;2023-02-12T10:13:26;12.97;;;9.27;;
6392;SDS011;3229;42.674;23.282;2023-02-12T10:16:05;12.63;;;9.63;;
6392;SDS011;3229;42.674;23.282;2023-02-12T10:18:47;14.63;;;10.43;;
6392;SDS011;3229;42.674;23.282;2023-02-12T10:21:38;11.50;;;9.73;;
6392;SDS011;3229;42.674;23.282;2023-02-12T10:24:19;11.53;;;9.20;;
6392;SDS011;3229;42.674;23.282;2023-02-12T10:26:58;14.83;;;9.87;;
6392;SDS011;3229;42.674;23.282;2023-02-12T10:29:31;13.07;;;10.30;;
6392;SDS011;3229;42.674;23.282;2023-02-12T10:32:01;15.63;;;10.47;;
6392;SDS011;3229;42.674;23.282;2023-02-12T10:34:31;13.80;;;10.90;;
6392;SDS011;3229;42.674;23.282;2023-02-12T10:37:01;14.10;;;11.40;;
6392;SDS011;3229;42.674;23.282;2023-02-12T10:39:30;13.70;;;10.73;;
6392;SDS011;3229;42.674;23.282;2023-02-12T10:42:06;13.53;;;11.03;;
6392;SDS011;3229;42.674;23.282;2023-02-12T10:44:38;15.43;;;11.80;;
6392;SDS011;3229;42.674;23.282;2023-02-12T10:47:04;14.70;;;11.97;;
6392;SDS011;3229;42.674;23.282;2023-02-12T10:49:32;16.43;;;11.53;;
6392;SDS011;3229;42.674;23.282;2023-02-12T10:52:02;16.93;;;11.60;;
6392;SDS011;3229;42.674;23.282;2023-02-12T10:54:37;16.20;;;12.53;;
6392;SDS011;3229;42.674;23.282;2023-02-12T10:57:12;17.70;;;12.53;;
6392;SDS011;3229;42.674;23.282;2023-02-12T10:59:42;15.30;;;11.73;;
6392;SDS011;3229;42.674;23.282;2023-02-12T11:02:20;17.23;;;11.70;;
6392;SDS011;3229;42.674;23.282;2023-02-12T11:04:51;15.77;;;12.20;;
6392;SDS011;3229;42.674;23.282;2023-02-12T11:07:19;14.83;;;11.77;;
6392;SDS011;3229;42.674;23.282;2023-02-12T11:09:47;16.63;;;11.50;;
6392;SDS011;3229;42.674;23.282;2023-02-12T11:12:21;16.23;;;11.77;;
6392;SDS011;3229;42.674;23.282;2023-02-12T11:14:54;15.10;;;11.80;;
6392;SDS011;3229;42.674;23.282;2023-02-12T11:17:24;16.20;;;12.13;;
6392;SDS011;3229;42.674;23.282;2023-02-12T11:20:00;18.23;;;12.70;;
6392;SDS011;3229;42.674;23.282;2023-02-12T11:22:47;16.23;;;12.03;;
6392;SDS011;3229;42.674;23.282;2023-02-12T11:25:16;18.40;;;12.50;;
6392;SDS011;3229;42.674;23.282;2023-02-12T11:27:44;17.17;;;12.40;;
6392;SDS011;3229;42.674;23.282;2023-02-12T11:30:25;16.97;;;11.97;;
6392;SDS011;3229;42.674;23.282;2023-02-12T11:32:51;16.77;;;11.17;;
6392;SDS011;3229;42.674;23.282;2023-02-12T11:35:19;17.60;;;12.03;;
6392;SDS011;3229;42.674;23.282;2023-02-12T11:37:50;17.37;;;12.37;;
6392;SDS011;3229;42.674;23.282;2023-02-12T11:40:20;16.70;;;12.10;;
6392;SDS011;3229;42.674;23.282;2023-02-12T11:42:50;16.27;;;12.53;;
6392;SDS011;3229;42.674;23.282;2023-02-12T11:45:21;17.40;;;12.23;;
6392;SDS011;3229;42.674;23.282;2023-02-12T11:47:52;17.43;;;12.23;;
6392;SDS011;3229;42.674;23.282;2023-02-12T11:50:22;16.40;;;12.27;;
6392;SDS011;3229;42.674;23.282;2023-02-12T11:52:52;14.67;;;11.80;;
6392;SDS011;3229;42.674;23.282;2023-02-12T11:55:24;17.40;;;13.50;;
6392;SDS011;3229;42.674;23.282;2023-02-12T11:57:54;14.50;;;12.23;;
6392;SDS011;3229;42.674;23.282;2023-02-12T12:00:28;14.93;;;11.67;;
6392;SDS011;3229;42.674;23.282;2023-02-12T12:03:01;16.80;;;12.97;;
6392;SDS011;3229;42.674;23.282;2023-02-12T12:05:37;16.17;;;12.23;;
6392;SDS011;3229;42.674;23.282;2023-02-12T12:08:10;15.80;;;12.37;;
6392;SDS011;3229;42.674;23.282;2023-02-12T12:10:43;16.57;;;13.17;;
6392;SDS011;3229;42.674;23.282;2023-02-12T12:13:17;16.13;;;12.90;;
6392;SDS011;3229;42.674;23.282;2023-02-12T12:15:49;16.20;;;12.20;;
6392;SDS011;3229;42.674;23.282;2023-02-12T12:18:41;18.27;;;12.53;;
6392;SDS011;3229;42.674;23.282;2023-02-12T12:21:36;15.30;;;12.57;;
6392;SDS011;3229;42.674;23.282;2023-02-12T12:24:08;15.70;;;13.13;;
6392;SDS011;3229;42.674;23.282;2023-02-12T12:26:40;14.43;;;12.17;;
6392;SDS011;3229;42.674;23.282;2023-02-12T12:29:16;16.00;;;13.17;;
6392;SDS011;3229;42.674;23.282;2023-02-12T12:31:49;16.13;;;12.63;;
6392;SDS011;3229;42.674;23.282;2023-02-12T12:34:21;17.83;;;13.50;;
6392;SDS011;3229;42.674;23.282;2023-02-12T12:36:59;18.10;;;13.37;;
6392;SDS011;3229;42.674;23.282;2023-02-12T12:39:42;15.63;;;12.13;;
6392;SDS011;3229;42.674;23.282;2023-02-12T12:42:31;21.03;;;13.33;;
6392;SDS011;3229;42.674;23.282;2023-02-12T12:45:18;16.20;;;12.53;;
6392;SDS011;3229;42.674;23.282;2023-02-12T12:48:03;16.30;;;12.43;;
6392;SDS011;3229;42.674;23.282;2023-02-12T12:50:44;15.37;;;12.03;;
6392;SDS011;3229;42.674;23.282;2023-02-12T12:53:26;15.93;;;12.40;;
6392;SDS011;3229;42.674;23.282;2023-02-12T12:58:58;15.00;;;12.40;;
6392;SDS011;3229;42.674;23.282;2023-02-12T13:04:40;19.83;;;14.30;;
6392;SDS011;3229;42.674;23.282;2023-02-12T13:07:24;19.37;;;13.07;;
6392;SDS011;3229;42.674;23.282;2023-02-12T13:10:13;20.33;;;13.93;;
6392;SDS011;3229;42.674;23.282;2023-02-12T13:13:05;17.73;;;13.43;;
6392;SDS011;3229;42.674;23.282;2023-02-12T13:15:43;17.53;;;13.13;;
6392;SDS011;3229;42.674;23.282;2023-02-12T13:18:21;19.67;;;14.40;;
6392;SDS011;3229;42.674;23.282;2023-02-12T13:20:59;17.50;;;13.53;;
6392;SDS011;3229;42.674;23.282;2023-02-12T13:23:34;18.43;;;14.27;;
6392;SDS011;3229;42.674;23.282;2023-02-12T13:26:06;18.60;;;14.13;;
6392;SDS011;3229;42.674;23.282;2023-02-12T13:28:40;17.93;;;13.80;;
6392;SDS011;3229;42.674;23.282;2023-02-12T13:31:12;17.77;;;13.27;;
6392;SDS011;3229;42.674;23.282;2023-02-12T13:33:43;18.40;;;13.57;;
6392;SDS011;3229;42.674;23.282;2023-02-12T13:36:16;17.63;;;13.73;;
6392;SDS011;3229;42.674;23.282;2023-02-12T13:38:44;20.80;;;14.77;;
6392;SDS011;3229;42.674;23.282;2023-02-12T13:41:13;22.13;;;15.73;;
6392;SDS011;3229;42.674;23.282;2023-02-12T13:43:45;22.93;;;15.60;;
6392;SDS011;3229;42.674;23.282;2023-02-12T13:46:24;22.23;;;16.60;;
6392;SDS011;3229;42.674;23.282;2023-02-12T13:48:59;19.40;;;14.73;;
6392;SDS011;3229;42.674;23.282;2023-02-12T13:51:41;23.20;;;15.03;;
6392;SDS011;3229;42.674;23.282;2023-02-12T13:54:17;20.83;;;15.57;;
6392;SDS011;3229;42.674;23.282;2023-02-12T13:56:55;23.03;;;15.43;;
6392;SDS011;3229;42.674;23.282;2023-02-12T13:59:40;21.47;;;16.07;;
6392;SDS011;3229;42.674;23.282;2023-02-12T14:05:13;23.10;;;16.37;;
6392;SDS011;3229;42.674;23.282;2023-02-12T14:07:53;24.27;;;16.00;;
6392;SDS011;3229;42.674;23.282;2023-02-12T14:10:23;20.43;;;16.13;;
6392;SDS011;3229;42.674;23.282;2023-02-12T14:12:53;27.63;;;16.57;;
6392;SDS011;3229;42.674;23.282;2023-02-12T14:15:28;21.57;;;15.13;;
6392;SDS011;3229;42.674;23.282;2023-02-12T14:27:33;23.70;;;16.73;;
6392;SDS011;3229;42.674;23.282;2023-02-12T14:32:55;20.60;;;16.17;;
6392;SDS011;3229;42.674;23.282;2023-02-12T14:35:40;22.80;;;15.80;;
6392;SDS011;3229;42.674;23.282;2023-02-12T14:41:30;21.77;;;16.67;;
6392;SDS011;3229;42.674;23.282;2023-02-12T14:50:17;21.17;;;15.73;;
6392;SDS011;3229;42.674;23.282;2023-02-12T14:52:50;24.17;;;16.27;;
6392;SDS011;3229;42.674;23.282;2023-02-12T14:55:21;19.27;;;15.13;;
6392;SDS011;3229;42.674;23.282;2023-02-12T14:57:54;25.00;;;15.90;;
6392;SDS011;3229;42.674;23.282;2023-02-12T15:00:25;25.47;;;16.23;;
6392;SDS011;3229;42.674;23.282;2023-02-12T15:02:57;19.70;;;16.00;;
6392;SDS011;3229;42.674;23.282;2023-02-12T15:05:28;25.03;;;16.87;;
6392;SDS011;3229;42.674;23.282;2023-02-12T15:07:58;21.27;;;16.80;;
6392;SDS011;3229;42.674;23.282;2023-02-12T15:10:28;22.63;;;16.00;;
6392;SDS011;3229;42.674;23.282;2023-02-12T15:13:01;24.07;;;16.43;;
6392;SDS011;3229;42.674;23.282;2023-02-12T15:15:36;24.13;;;16.97;;
6392;SDS011;3229;42.674;23.282;2023-02-12T15:18:11;22.47;;;16.87;;
6392;SDS011;3229;42.674;23.282;2023-02-12T15:20:55;22.07;;;17.13;;
6392;SDS011;3229;42.674;23.282;2023-02-12T15:23:33;23.10;;;16.63;;
6392;SDS011;3229;42.674;23.282;2023-02-12T15:26:03;22.90;;;16.30;;
6392;SDS011;3229;42.674;23.282;2023-02-12T15:28:32;24.07;;;17.03;;
6392;SDS011;3229;42.674;23.282;2023-02-12T15:31:02;23.80;;;16.67;;
6392;SDS011;3229;42.674;23.282;2023-02-12T15:33:36;21.40;;;16.27;;
6392;SDS011;3229;42.674;23.282;2023-02-12T15:36:06;22.57;;;16.57;;
6392;SDS011;3229;42.674;23.282;2023-02-12T15:38:37;23.37;;;17.23;;
6392;SDS011;3229;42.674;23.282;2023-02-12T15:41:07;23.20;;;17.43;;